sensor_id;sensor_type;location;lat;lon;timestamp;temperature;humidity
32187;DHT22;18686;53.084;8.872;2022-08-19T00:01:52;17.90;99.90
32187;DHT22;18686;53.084;8.872;2022-08-19T00:04:23;17.90;99.90
32187;DHT22;18686;53.084;8.872;2022-08-19T00:06:53;18.00;99.90
32187;DHT22;18686;53.084;8.872;2022-08-19T00:09:23;18.00;99.90
32187;DHT22;18686;53.084;8.872;2022-08-19T00:11:53;18.10;99.90
32187;DHT22;18686;53.084;8.872;2022-08-19T00:14:24;18.10;99.90
32187;DHT22;18686;53.084;8.872;2022-08-19T00:16:53;18.10;99.90
32187;DHT22;18686;53.084;8.872;2022-08-19T00:19:22;18.10;99.90
32187;DHT22;18686;53.084;8.872;2022-08-19T00:21:53;18.10;99.90
32187;DHT22;18686;53.084;8.872;2022-08-19T00:24:22;18.20;99.90
32187;DHT22;18686;53.084;8.872;2022-08-19T00:26:51;18.20;99.90
32187;DHT22;18686;53.084;8.872;2022-08-19T00:29:21;18.20;99.90
32187;DHT22;18686;53.084;8.872;2022-08-19T00:31:50;18.20;99.90
32187;DHT22;18686;53.084;8.872;2022-08-19T00:34:39;18.30;99.90
32187;DHT22;18686;53.084;8.872;2022-08-19T00:37:08;18.30;99.90
32187;DHT22;18686;53.084;8.872;2022-08-19T00:39:37;18.40;99.90
32187;DHT22;18686;53.084;8.872;2022-08-19T00:42:05;18.40;99.90
32187;DHT22;18686;53.084;8.872;2022-08-19T00:44:34;18.40;99.90
32187;DHT22;18686;53.084;8.872;2022-08-19T00:47:02;18.40;99.90
32187;DHT22;18686;53.084;8.872;2022-08-19T00:49:42;18.40;99.90
32187;DHT22;18686;53.084;8.872;2022-08-19T00:52:16;18.50;99.90
32187;DHT22;18686;53.084;8.872;2022-08-19T00:54:47;18.50;99.90
32187;DHT22;18686;53.084;8.872;2022-08-19T00:57:23;18.50;99.90
32187;DHT22;18686;53.084;8.872;2022-08-19T00:59:54;18.50;99.90
32187;DHT22;18686;53.084;8.872;2022-08-19T01:02:30;18.60;99.90
32187;DHT22;18686;53.084;8.872;2022-08-19T01:05:01;18.50;99.90
32187;DHT22;18686;53.084;8.872;2022-08-19T01:07:31;18.60;99.90
32187;DHT22;18686;53.084;8.872;2022-08-19T01:10:05;18.60;99.90
32187;DHT22;18686;53.084;8.872;2022-08-19T01:12:33;18.60;99.90
32187;DHT22;18686;53.084;8.872;2022-08-19T01:15:02;18.60;99.90
32187;DHT22;18686;53.084;8.872;2022-08-19T01:17:31;18.60;99.90
32187;DHT22;18686;53.084;8.872;2022-08-19T01:20:00;18.60;99.90
32187;DHT22;18686;53.084;8.872;2022-08-19T01:22:31;18.60;99.90
32187;DHT22;18686;53.084;8.872;2022-08-19T01:25:05;18.70;99.90
32187;DHT22;18686;53.084;8.872;2022-08-19T01:27:43;18.70;99.90
32187;DHT22;18686;53.084;8.872;2022-08-19T01:30:15;18.70;99.90
32187;DHT22;18686;53.084;8.872;2022-08-19T01:32:45;18.70;99.90
32187;DHT22;18686;53.084;8.872;2022-08-19T01:35:14;18.70;99.90
32187;DHT22;18686;53.084;8.872;2022-08-19T01:37:50;18.70;99.90
32187;DHT22;18686;53.084;8.872;2022-08-19T01:40:21;18.70;99.90
32187;DHT22;18686;53.084;8.872;2022-08-19T01:42:50;18.80;99.90
32187;DHT22;18686;53.084;8.872;2022-08-19T01:45:22;18.80;99.90
32187;DHT22;18686;53.084;8.872;2022-08-19T01:47:53;18.70;99.90
32187;DHT22;18686;53.084;8.872;2022-08-19T01:50:29;18.80;99.90
32187;DHT22;18686;53.084;8.872;2022-08-19T01:53:00;18.70;99.90
32187;DHT22;18686;53.084;8.872;2022-08-19T01:55:35;18.80;99.90
32187;DHT22;18686;53.084;8.872;2022-08-19T01:58:13;18.80;99.90
32187;DHT22;18686;53.084;8.872;2022-08-19T02:00:43;18.80;99.90
32187;DHT22;18686;53.084;8.872;2022-08-19T02:03:12;18.80;99.90
32187;DHT22;18686;53.084;8.872;2022-08-19T02:05:41;18.80;99.90
32187;DHT22;18686;53.084;8.872;2022-08-19T02:08:11;18.80;99.90
32187;DHT22;18686;53.084;8.872;2022-08-19T02:10:42;18.80;99.90
32187;DHT22;18686;53.084;8.872;2022-08-19T02:13:13;18.80;99.90
32187;DHT22;18686;53.084;8.872;2022-08-19T02:15:48;18.80;99.90
32187;DHT22;18686;53.084;8.872;2022-08-19T02:18:17;18.80;99.90
32187;DHT22;18686;53.084;8.872;2022-08-19T02:20:46;18.80;99.90
32187;DHT22;18686;53.084;8.872;2022-08-19T02:23:16;18.80;99.90
32187;DHT22;18686;53.084;8.872;2022-08-19T02:25:47;18.80;99.90
32187;DHT22;18686;53.084;8.872;2022-08-19T02:28:16;18.80;99.90
32187;DHT22;18686;53.084;8.872;2022-08-19T02:30:46;18.80;99.90
32187;DHT22;18686;53.084;8.872;2022-08-19T02:33:15;18.80;99.90
32187;DHT22;18686;53.084;8.872;2022-08-19T02:35:44;18.80;99.90
32187;DHT22;18686;53.084;8.872;2022-08-19T02:38:13;18.70;99.90
32187;DHT22;18686;53.084;8.872;2022-08-19T02:40:56;18.70;99.90
32187;DHT22;18686;53.084;8.872;2022-08-19T02:43:26;18.70;99.90
32187;DHT22;18686;53.084;8.872;2022-08-19T02:45:59;18.60;99.90
32187;DHT22;18686;53.084;8.872;2022-08-19T02:48:27;18.60;99.90
32187;DHT22;18686;53.084;8.872;2022-08-19T02:50:56;18.60;99.90
32187;DHT22;18686;53.084;8.872;2022-08-19T02:53:27;18.60;99.90
32187;DHT22;18686;53.084;8.872;2022-08-19T02:56:17;18.60;99.90
32187;DHT22;18686;53.084;8.872;2022-08-19T02:58:47;18.60;99.90
32187;DHT22;18686;53.084;8.872;2022-08-19T03:01:21;18.60;99.90
32187;DHT22;18686;53.084;8.872;2022-08-19T03:03:51;18.60;99.90
32187;DHT22;18686;53.084;8.872;2022-08-19T03:06:19;18.70;99.90
32187;DHT22;18686;53.084;8.872;2022-08-19T03:08:48;18.70;99.90
32187;DHT22;18686;53.084;8.872;2022-08-19T03:11:20;18.60;99.90
32187;DHT22;18686;53.084;8.872;2022-08-19T03:13:49;18.70;99.90
32187;DHT22;18686;53.084;8.872;2022-08-19T03:16:18;18.70;99.90
32187;DHT22;18686;53.084;8.872;2022-08-19T03:18:47;18.70;99.90
32187;DHT22;18686;53.084;8.872;2022-08-19T03:21:16;18.70;99.90
32187;DHT22;18686;53.084;8.872;2022-08-19T03:23:44;18.70;99.90
32187;DHT22;18686;53.084;8.872;2022-08-19T03:26:12;18.70;99.90
32187;DHT22;18686;53.084;8.872;2022-08-19T03:28:45;18.70;99.90
32187;DHT22;18686;53.084;8.872;2022-08-19T03:31:26;18.70;99.90
32187;DHT22;18686;53.084;8.872;2022-08-19T03:34:16;18.70;99.90
32187;DHT22;18686;53.084;8.872;2022-08-19T03:36:46;18.70;99.90
32187;DHT22;18686;53.084;8.872;2022-08-19T03:39:15;18.70;99.90
32187;DHT22;18686;53.084;8.872;2022-08-19T03:41:44;18.80;99.90
32187;DHT22;18686;53.084;8.872;2022-08-19T03:44:18;18.70;99.90
32187;DHT22;18686;53.084;8.872;2022-08-19T03:46:49;18.70;99.90
32187;DHT22;18686;53.084;8.872;2022-08-19T03:49:18;18.70;99.90
32187;DHT22;18686;53.084;8.872;2022-08-19T03:51:54;18.70;99.90
32187;DHT22;18686;53.084;8.872;2022-08-19T03:54:24;18.70;99.90
32187;DHT22;18686;53.084;8.872;2022-08-19T03:56:55;18.70;99.90
32187;DHT22;18686;53.084;8.872;2022-08-19T03:59:28;18.60;99.90
32187;DHT22;18686;53.084;8.872;2022-08-19T04:02:00;18.60;99.90
32187;DHT22;18686;53.084;8.872;2022-08-19T04:04:28;18.60;99.90
32187;DHT22;18686;53.084;8.872;2022-08-19T04:06:57;18.60;99.90
32187;DHT22;18686;53.084;8.872;2022-08-19T04:09:45;18.60;99.90
32187;DHT22;18686;53.084;8.872;2022-08-19T04:12:13;18.60;99.90
32187;DHT22;18686;53.084;8.872;2022-08-19T04:14:43;18.60;99.90
32187;DHT22;18686;53.084;8.872;2022-08-19T04:17:12;18.50;99.90
32187;DHT22;18686;53.084;8.872;2022-08-19T04:19:41;18.50;99.90
32187;DHT22;18686;53.084;8.872;2022-08-19T04:22:10;18.40;99.90
32187;DHT22;18686;53.084;8.872;2022-08-19T04:24:39;18.40;99.90
32187;DHT22;18686;53.084;8.872;2022-08-19T04:27:07;18.40;99.90
32187;DHT22;18686;53.084;8.872;2022-08-19T04:29:35;18.40;99.90
32187;DHT22;18686;53.084;8.872;2022-08-19T04:32:07;18.30;99.90
32187;DHT22;18686;53.084;8.872;2022-08-19T04:34:37;18.30;99.90
32187;DHT22;18686;53.084;8.872;2022-08-19T04:37:26;18.20;99.90
32187;DHT22;18686;53.084;8.872;2022-08-19T04:40:04;18.20;99.90
32187;DHT22;18686;53.084;8.872;2022-08-19T04:42:50;18.20;99.90
32187;DHT22;18686;53.084;8.872;2022-08-19T04:45:18;18.20;99.90
32187;DHT22;18686;53.084;8.872;2022-08-19T04:47:55;18.20;99.90
32187;DHT22;18686;53.084;8.872;2022-08-19T04:50:46;18.30;99.90
32187;DHT22;18686;53.084;8.872;2022-08-19T04:53:15;18.30;99.90
32187;DHT22;18686;53.084;8.872;2022-08-19T04:55:43;18.20;99.90
32187;DHT22;18686;53.084;8.872;2022-08-19T04:58:11;18.20;99.90
32187;DHT22;18686;53.084;8.872;2022-08-19T05:00:40;18.20;99.90
32187;DHT22;18686;53.084;8.872;2022-08-19T05:03:10;18.20;99.90
32187;DHT22;18686;53.084;8.872;2022-08-19T05:05:39;18.20;99.90
32187;DHT22;18686;53.084;8.872;2022-08-19T05:08:11;18.20;99.90
32187;DHT22;18686;53.084;8.872;2022-08-19T05:10:41;18.20;99.90
32187;DHT22;18686;53.084;8.872;2022-08-19T05:13:09;18.20;99.90
32187;DHT22;18686;53.084;8.872;2022-08-19T05:15:38;18.20;99.90
32187;DHT22;18686;53.084;8.872;2022-08-19T05:18:09;18.20;99.90
32187;DHT22;18686;53.084;8.872;2022-08-19T05:20:55;18.30;99.90
32187;DHT22;18686;53.084;8.872;2022-08-19T05:23:46;18.30;99.90
32187;DHT22;18686;53.084;8.872;2022-08-19T05:26:15;18.30;99.90
32187;DHT22;18686;53.084;8.872;2022-08-19T05:28:43;18.40;99.90
32187;DHT22;18686;53.084;8.872;2022-08-19T05:31:11;18.40;99.90
32187;DHT22;18686;53.084;8.872;2022-08-19T05:33:41;18.40;99.90
32187;DHT22;18686;53.084;8.872;2022-08-19T05:36:09;18.40;99.90
32187;DHT22;18686;53.084;8.872;2022-08-19T05:38:37;18.40;99.90
32187;DHT22;18686;53.084;8.872;2022-08-19T05:41:07;18.40;99.90
32187;DHT22;18686;53.084;8.872;2022-08-19T05:43:36;18.50;99.90
32187;DHT22;18686;53.084;8.872;2022-08-19T05:46:05;18.50;99.90
32187;DHT22;18686;53.084;8.872;2022-08-19T05:48:34;18.50;99.90
32187;DHT22;18686;53.084;8.872;2022-08-19T05:51:05;18.50;99.90
32187;DHT22;18686;53.084;8.872;2022-08-19T05:53:35;18.60;99.90
32187;DHT22;18686;53.084;8.872;2022-08-19T05:56:04;18.50;99.90
32187;DHT22;18686;53.084;8.872;2022-08-19T05:58:32;18.60;99.90
32187;DHT22;18686;53.084;8.872;2022-08-19T06:01:01;18.70;99.90
32187;DHT22;18686;53.084;8.872;2022-08-19T06:03:32;18.70;99.90
32187;DHT22;18686;53.084;8.872;2022-08-19T06:06:01;18.80;99.90
32187;DHT22;18686;53.084;8.872;2022-08-19T06:08:32;18.90;99.90
32187;DHT22;18686;53.084;8.872;2022-08-19T06:11:18;19.10;99.90
32187;DHT22;18686;53.084;8.872;2022-08-19T06:13:48;19.40;99.90
32187;DHT22;18686;53.084;8.872;2022-08-19T06:16:26;19.60;99.90
32187;DHT22;18686;53.084;8.872;2022-08-19T06:18:55;20.00;99.90
32187;DHT22;18686;53.084;8.872;2022-08-19T06:21:26;20.30;99.90
32187;DHT22;18686;53.084;8.872;2022-08-19T06:23:58;20.70;99.90
32187;DHT22;18686;53.084;8.872;2022-08-19T06:26:26;21.00;99.90
32187;DHT22;18686;53.084;8.872;2022-08-19T06:28:55;21.30;99.90
32187;DHT22;18686;53.084;8.872;2022-08-19T06:31:27;21.50;99.90
32187;DHT22;18686;53.084;8.872;2022-08-19T06:33:55;21.60;99.90
32187;DHT22;18686;53.084;8.872;2022-08-19T06:36:27;21.80;99.90
32187;DHT22;18686;53.084;8.872;2022-08-19T06:39:00;21.90;99.90
32187;DHT22;18686;53.084;8.872;2022-08-19T06:41:30;21.90;99.70
32187;DHT22;18686;53.084;8.872;2022-08-19T06:43:58;21.90;99.10
32187;DHT22;18686;53.084;8.872;2022-08-19T06:46:27;22.10;99.00
32187;DHT22;18686;53.084;8.872;2022-08-19T06:48:59;22.70;97.90
32187;DHT22;18686;53.084;8.872;2022-08-19T06:51:28;23.80;95.70
32187;DHT22;18686;53.084;8.872;2022-08-19T06:54:05;25.20;90.70
32187;DHT22;18686;53.084;8.872;2022-08-19T06:56:45;26.50;81.10
32187;DHT22;18686;53.084;8.872;2022-08-19T06:59:16;27.70;72.00
32187;DHT22;18686;53.084;8.872;2022-08-19T07:01:49;28.50;64.70
32187;DHT22;18686;53.084;8.872;2022-08-19T07:04:21;29.10;60.50
32187;DHT22;18686;53.084;8.872;2022-08-19T07:06:56;29.00;57.70
32187;DHT22;18686;53.084;8.872;2022-08-19T07:09:39;28.70;56.80
32187;DHT22;18686;53.084;8.872;2022-08-19T07:12:11;28.30;56.40
32187;DHT22;18686;53.084;8.872;2022-08-19T07:14:42;27.80;57.30
32187;DHT22;18686;53.084;8.872;2022-08-19T07:17:13;27.60;58.70
32187;DHT22;18686;53.084;8.872;2022-08-19T07:19:41;27.80;58.20
32187;DHT22;18686;53.084;8.872;2022-08-19T07:22:10;28.00;57.80
32187;DHT22;18686;53.084;8.872;2022-08-19T07:24:40;28.70;57.10
32187;DHT22;18686;53.084;8.872;2022-08-19T07:27:18;30.20;54.90
32187;DHT22;18686;53.084;8.872;2022-08-19T07:29:52;32.10;51.40
32187;DHT22;18686;53.084;8.872;2022-08-19T07:32:23;33.30;47.30
32187;DHT22;18686;53.084;8.872;2022-08-19T07:34:53;34.30;45.90
32187;DHT22;18686;53.084;8.872;2022-08-19T07:37:23;35.10;43.90
32187;DHT22;18686;53.084;8.872;2022-08-19T07:40:00;35.50;42.20
32187;DHT22;18686;53.084;8.872;2022-08-19T07:42:29;35.60;41.00
32187;DHT22;18686;53.084;8.872;2022-08-19T07:44:58;35.70;40.70
32187;DHT22;18686;53.084;8.872;2022-08-19T07:47:26;35.70;40.40
32187;DHT22;18686;53.084;8.872;2022-08-19T07:50:16;35.80;40.10
32187;DHT22;18686;53.084;8.872;2022-08-19T07:52:46;36.10;39.70
32187;DHT22;18686;53.084;8.872;2022-08-19T07:55:22;36.10;39.20
32187;DHT22;18686;53.084;8.872;2022-08-19T07:58:11;36.20;38.50
32187;DHT22;18686;53.084;8.872;2022-08-19T08:00:40;36.30;38.00
32187;DHT22;18686;53.084;8.872;2022-08-19T08:03:09;36.60;37.70
32187;DHT22;18686;53.084;8.872;2022-08-19T08:05:38;37.20;36.90
32187;DHT22;18686;53.084;8.872;2022-08-19T08:08:25;37.00;36.20
32187;DHT22;18686;53.084;8.872;2022-08-19T08:11:16;36.50;36.60
32187;DHT22;18686;53.084;8.872;2022-08-19T08:13:47;36.40;36.70
32187;DHT22;18686;53.084;8.872;2022-08-19T08:16:33;37.30;36.50
32187;DHT22;18686;53.084;8.872;2022-08-19T08:19:13;39.10;35.20
32187;DHT22;18686;53.084;8.872;2022-08-19T08:21:53;40.90;34.00
32187;DHT22;18686;53.084;8.872;2022-08-19T08:24:21;42.70;32.50
32187;DHT22;18686;53.084;8.872;2022-08-19T08:26:58;43.00;30.80
32187;DHT22;18686;53.084;8.872;2022-08-19T08:29:29;42.20;30.40
32187;DHT22;18686;53.084;8.872;2022-08-19T08:32:01;41.50;30.90
32187;DHT22;18686;53.084;8.872;2022-08-19T08:34:40;41.70;31.40
32187;DHT22;18686;53.084;8.872;2022-08-19T08:37:09;43.00;30.90
32187;DHT22;18686;53.084;8.872;2022-08-19T08:39:37;44.20;30.00
32187;DHT22;18686;53.084;8.872;2022-08-19T08:42:12;45.10;29.40
32187;DHT22;18686;53.084;8.872;2022-08-19T08:44:48;45.90;28.80
32187;DHT22;18686;53.084;8.872;2022-08-19T08:47:25;47.00;28.20
32187;DHT22;18686;53.084;8.872;2022-08-19T08:49:58;47.90;27.30
32187;DHT22;18686;53.084;8.872;2022-08-19T08:52:29;48.10;27.00
32187;DHT22;18686;53.084;8.872;2022-08-19T08:55:05;47.70;26.90
32187;DHT22;18686;53.084;8.872;2022-08-19T08:57:42;47.00;27.10
32187;DHT22;18686;53.084;8.872;2022-08-19T09:00:21;46.40;27.30
32187;DHT22;18686;53.084;8.872;2022-08-19T09:02:51;46.30;27.80
32187;DHT22;18686;53.084;8.872;2022-08-19T09:05:21;45.80;27.20
32187;DHT22;18686;53.084;8.872;2022-08-19T09:07:57;45.60;27.30
32187;DHT22;18686;53.084;8.872;2022-08-19T09:10:32;45.30;27.30
32187;DHT22;18686;53.084;8.872;2022-08-19T09:13:18;45.60;27.30
32187;DHT22;18686;53.084;8.872;2022-08-19T09:15:54;46.40;26.90
32187;DHT22;18686;53.084;8.872;2022-08-19T09:18:24;47.30;26.60
32187;DHT22;18686;53.084;8.872;2022-08-19T09:20:55;48.40;26.40
32187;DHT22;18686;53.084;8.872;2022-08-19T09:23:24;49.90;25.70
32187;DHT22;18686;53.084;8.872;2022-08-19T09:25:53;51.30;25.40
32187;DHT22;18686;53.084;8.872;2022-08-19T09:28:23;52.80;24.90
32187;DHT22;18686;53.084;8.872;2022-08-19T09:30:53;54.00;24.50
32187;DHT22;18686;53.084;8.872;2022-08-19T09:33:28;54.50;23.90
32187;DHT22;18686;53.084;8.872;2022-08-19T09:36:06;54.50;23.90
32187;DHT22;18686;53.084;8.872;2022-08-19T09:38:36;54.00;23.80
32187;DHT22;18686;53.084;8.872;2022-08-19T09:41:14;54.20;23.80
32187;DHT22;18686;53.084;8.872;2022-08-19T09:43:47;54.50;23.70
32187;DHT22;18686;53.084;8.872;2022-08-19T09:46:20;54.70;23.70
32187;DHT22;18686;53.084;8.872;2022-08-19T09:49:07;55.10;23.40
32187;DHT22;18686;53.084;8.872;2022-08-19T09:51:35;54.90;23.40
32187;DHT22;18686;53.084;8.872;2022-08-19T09:54:05;54.80;23.40
32187;DHT22;18686;53.084;8.872;2022-08-19T09:56:37;54.80;23.40
32187;DHT22;18686;53.084;8.872;2022-08-19T09:59:09;54.90;23.20
32187;DHT22;18686;53.084;8.872;2022-08-19T10:01:39;55.30;23.20
32187;DHT22;18686;53.084;8.872;2022-08-19T10:04:09;55.90;23.00
32187;DHT22;18686;53.084;8.872;2022-08-19T10:06:48;56.50;22.90
32187;DHT22;18686;53.084;8.872;2022-08-19T10:09:19;57.10;22.60
32187;DHT22;18686;53.084;8.872;2022-08-19T10:12:08;57.30;22.40
32187;DHT22;18686;53.084;8.872;2022-08-19T10:14:50;57.80;22.30
32187;DHT22;18686;53.084;8.872;2022-08-19T10:17:20;58.00;22.20
32187;DHT22;18686;53.084;8.872;2022-08-19T10:19:56;58.00;22.10
32187;DHT22;18686;53.084;8.872;2022-08-19T10:22:25;58.20;21.80
32187;DHT22;18686;53.084;8.872;2022-08-19T10:24:55;58.20;21.80
32187;DHT22;18686;53.084;8.872;2022-08-19T10:27:24;58.20;21.80
32187;DHT22;18686;53.084;8.872;2022-08-19T10:29:54;58.00;21.80
32187;DHT22;18686;53.084;8.872;2022-08-19T10:32:26;58.00;21.90
32187;DHT22;18686;53.084;8.872;2022-08-19T10:35:00;58.00;21.80
32187;DHT22;18686;53.084;8.872;2022-08-19T10:37:32;57.90;21.80
32187;DHT22;18686;53.084;8.872;2022-08-19T10:40:01;58.20;21.70
32187;DHT22;18686;53.084;8.872;2022-08-19T10:42:31;58.20;21.70
32187;DHT22;18686;53.084;8.872;2022-08-19T10:45:01;58.40;21.40
32187;DHT22;18686;53.084;8.872;2022-08-19T10:47:31;58.30;21.50
32187;DHT22;18686;53.084;8.872;2022-08-19T10:49:59;58.50;21.40
32187;DHT22;18686;53.084;8.872;2022-08-19T10:52:47;58.70;21.30
32187;DHT22;18686;53.084;8.872;2022-08-19T10:55:18;58.90;21.50
32187;DHT22;18686;53.084;8.872;2022-08-19T10:58:10;58.80;21.50
32187;DHT22;18686;53.084;8.872;2022-08-19T11:00:40;58.70;21.40
32187;DHT22;18686;53.084;8.872;2022-08-19T11:03:10;58.80;21.40
32187;DHT22;18686;53.084;8.872;2022-08-19T11:05:38;58.70;21.00
32187;DHT22;18686;53.084;8.872;2022-08-19T11:08:08;58.50;21.10
32187;DHT22;18686;53.084;8.872;2022-08-19T11:10:51;58.70;21.00
32187;DHT22;18686;53.084;8.872;2022-08-19T11:13:40;58.70;21.00
32187;DHT22;18686;53.084;8.872;2022-08-19T11:16:16;58.80;21.20
32187;DHT22;18686;53.084;8.872;2022-08-19T11:18:47;58.70;21.00
32187;DHT22;18686;53.084;8.872;2022-08-19T11:21:18;58.70;21.00
32187;DHT22;18686;53.084;8.872;2022-08-19T11:23:52;58.60;20.90
32187;DHT22;18686;53.084;8.872;2022-08-19T11:26:23;58.90;20.90
32187;DHT22;18686;53.084;8.872;2022-08-19T11:28:51;58.90;20.90
32187;DHT22;18686;53.084;8.872;2022-08-19T11:31:25;58.80;21.10
32187;DHT22;18686;53.084;8.872;2022-08-19T11:33:58;58.70;21.10
32187;DHT22;18686;53.084;8.872;2022-08-19T11:36:28;58.50;21.00
32187;DHT22;18686;53.084;8.872;2022-08-19T11:38:58;56.10;20.90
32187;DHT22;18686;53.084;8.872;2022-08-19T11:41:28;56.30;21.50
32187;DHT22;18686;53.084;8.872;2022-08-19T11:43:57;56.70;21.50
32187;DHT22;18686;53.084;8.872;2022-08-19T11:46:27;57.20;21.10
32187;DHT22;18686;53.084;8.872;2022-08-19T11:48:58;57.20;20.90
32187;DHT22;18686;53.084;8.872;2022-08-19T11:51:27;57.20;21.00
32187;DHT22;18686;53.084;8.872;2022-08-19T11:53:57;57.10;20.90
32187;DHT22;18686;53.084;8.872;2022-08-19T11:56:26;56.10;20.90
32187;DHT22;18686;53.084;8.872;2022-08-19T11:58:56;55.10;21.10
32187;DHT22;18686;53.084;8.872;2022-08-19T12:01:26;54.50;21.10
32187;DHT22;18686;53.084;8.872;2022-08-19T12:03:56;54.50;21.10
32187;DHT22;18686;53.084;8.872;2022-08-19T12:06:27;54.50;21.00
32187;DHT22;18686;53.084;8.872;2022-08-19T12:09:16;54.50;20.90
32187;DHT22;18686;53.084;8.872;2022-08-19T12:11:44;54.50;21.40
32187;DHT22;18686;53.084;8.872;2022-08-19T12:14:13;54.70;20.80
32187;DHT22;18686;53.084;8.872;2022-08-19T12:16:46;54.80;20.70
32187;DHT22;18686;53.084;8.872;2022-08-19T12:19:18;55.20;20.70
32187;DHT22;18686;53.084;8.872;2022-08-19T12:21:48;55.80;20.70
32187;DHT22;18686;53.084;8.872;2022-08-19T12:24:17;55.80;20.50
32187;DHT22;18686;53.084;8.872;2022-08-19T12:26:50;55.70;20.70
32187;DHT22;18686;53.084;8.872;2022-08-19T12:29:20;55.60;20.80
32187;DHT22;18686;53.084;8.872;2022-08-19T12:31:51;55.40;20.60
32187;DHT22;18686;53.084;8.872;2022-08-19T12:34:19;54.60;20.40
32187;DHT22;18686;53.084;8.872;2022-08-19T12:36:48;54.00;20.70
32187;DHT22;18686;53.084;8.872;2022-08-19T12:39:16;53.80;21.20
32187;DHT22;18686;53.084;8.872;2022-08-19T12:41:45;53.80;21.00
32187;DHT22;18686;53.084;8.872;2022-08-19T12:44:21;53.60;21.10
32187;DHT22;18686;53.084;8.872;2022-08-19T12:46:57;53.30;21.10
32187;DHT22;18686;53.084;8.872;2022-08-19T12:49:28;52.80;21.20
32187;DHT22;18686;53.084;8.872;2022-08-19T12:52:16;52.70;21.30
32187;DHT22;18686;53.084;8.872;2022-08-19T12:54:50;52.50;21.30
32187;DHT22;18686;53.084;8.872;2022-08-19T12:57:21;52.00;21.40
32187;DHT22;18686;53.084;8.872;2022-08-19T12:59:59;52.00;21.60
32187;DHT22;18686;53.084;8.872;2022-08-19T13:02:32;51.70;21.70
32187;DHT22;18686;53.084;8.872;2022-08-19T13:05:07;51.50;22.10
32187;DHT22;18686;53.084;8.872;2022-08-19T13:07:37;51.10;22.00
32187;DHT22;18686;53.084;8.872;2022-08-19T13:10:06;50.80;22.20
32187;DHT22;18686;53.084;8.872;2022-08-19T13:12:35;50.60;22.20
32187;DHT22;18686;53.084;8.872;2022-08-19T13:15:05;50.20;22.30
32187;DHT22;18686;53.084;8.872;2022-08-19T13:17:39;49.90;22.60
32187;DHT22;18686;53.084;8.872;2022-08-19T13:20:10;49.80;22.70
32187;DHT22;18686;53.084;8.872;2022-08-19T13:22:38;49.30;22.90
32187;DHT22;18686;53.084;8.872;2022-08-19T13:25:08;48.90;23.20
32187;DHT22;18686;53.084;8.872;2022-08-19T13:27:37;48.50;23.20
32187;DHT22;18686;53.084;8.872;2022-08-19T13:30:09;48.20;23.30
32187;DHT22;18686;53.084;8.872;2022-08-19T13:32:56;47.50;23.60
32187;DHT22;18686;53.084;8.872;2022-08-19T13:35:45;46.40;23.60
32187;DHT22;18686;53.084;8.872;2022-08-19T13:38:14;45.00;23.50
32187;DHT22;18686;53.084;8.872;2022-08-19T13:40:43;43.60;24.10
32187;DHT22;18686;53.084;8.872;2022-08-19T13:43:12;42.00;24.60
32187;DHT22;18686;53.084;8.872;2022-08-19T13:45:50;40.80;25.90
32187;DHT22;18686;53.084;8.872;2022-08-19T13:48:22;39.40;26.20
32187;DHT22;18686;53.084;8.872;2022-08-19T13:50:52;38.30;26.40
32187;DHT22;18686;53.084;8.872;2022-08-19T13:53:20;37.30;27.00
32187;DHT22;18686;53.084;8.872;2022-08-19T13:55:49;36.50;26.90
32187;DHT22;18686;53.084;8.872;2022-08-19T13:58:18;35.80;27.10
32187;DHT22;18686;53.084;8.872;2022-08-19T14:00:46;35.20;28.10
32187;DHT22;18686;53.084;8.872;2022-08-19T14:03:15;34.70;28.10
32187;DHT22;18686;53.084;8.872;2022-08-19T14:05:45;34.30;28.40
32187;DHT22;18686;53.084;8.872;2022-08-19T14:08:13;33.90;29.20
32187;DHT22;18686;53.084;8.872;2022-08-19T14:10:42;33.60;29.40
32187;DHT22;18686;53.084;8.872;2022-08-19T14:13:14;33.40;30.00
32187;DHT22;18686;53.084;8.872;2022-08-19T14:15:44;33.10;30.00
32187;DHT22;18686;53.084;8.872;2022-08-19T14:18:15;32.90;30.80
32187;DHT22;18686;53.084;8.872;2022-08-19T14:20:45;32.60;30.70
32187;DHT22;18686;53.084;8.872;2022-08-19T14:23:13;32.40;30.80
32187;DHT22;18686;53.084;8.872;2022-08-19T14:25:42;32.10;31.70
32187;DHT22;18686;53.084;8.872;2022-08-19T14:28:10;31.80;31.60
32187;DHT22;18686;53.084;8.872;2022-08-19T14:30:38;31.50;32.60
32187;DHT22;18686;53.084;8.872;2022-08-19T14:33:07;31.40;33.30
32187;DHT22;18686;53.084;8.872;2022-08-19T14:35:36;31.20;32.60
32187;DHT22;18686;53.084;8.872;2022-08-19T14:38:06;31.00;33.50
32187;DHT22;18686;53.084;8.872;2022-08-19T14:40:43;30.80;33.80
32187;DHT22;18686;53.084;8.872;2022-08-19T14:43:12;30.50;34.50
32187;DHT22;18686;53.084;8.872;2022-08-19T14:45:44;30.30;35.20
32187;DHT22;18686;53.084;8.872;2022-08-19T14:48:12;30.10;35.20
32187;DHT22;18686;53.084;8.872;2022-08-19T14:50:46;30.00;35.60
32187;DHT22;18686;53.084;8.872;2022-08-19T14:53:16;29.80;36.40
32187;DHT22;18686;53.084;8.872;2022-08-19T14:55:45;29.60;36.40
32187;DHT22;18686;53.084;8.872;2022-08-19T14:58:14;29.40;36.50
32187;DHT22;18686;53.084;8.872;2022-08-19T15:00:58;29.20;36.90
32187;DHT22;18686;53.084;8.872;2022-08-19T15:03:27;29.00;37.20
32187;DHT22;18686;53.084;8.872;2022-08-19T15:05:55;28.90;37.80
32187;DHT22;18686;53.084;8.872;2022-08-19T15:08:27;28.80;38.40
32187;DHT22;18686;53.084;8.872;2022-08-19T15:10:57;28.60;39.30
32187;DHT22;18686;53.084;8.872;2022-08-19T15:13:26;28.40;39.10
32187;DHT22;18686;53.084;8.872;2022-08-19T15:15:56;28.30;39.30
32187;DHT22;18686;53.084;8.872;2022-08-19T15:18:25;28.20;40.00
32187;DHT22;18686;53.084;8.872;2022-08-19T15:20:53;28.00;40.00
32187;DHT22;18686;53.084;8.872;2022-08-19T15:23:22;28.00;40.40
32187;DHT22;18686;53.084;8.872;2022-08-19T15:25:52;27.90;40.50
32187;DHT22;18686;53.084;8.872;2022-08-19T15:28:23;27.70;41.10
32187;DHT22;18686;53.084;8.872;2022-08-19T15:30:52;27.60;41.40
32187;DHT22;18686;53.084;8.872;2022-08-19T15:33:20;27.60;41.50
32187;DHT22;18686;53.084;8.872;2022-08-19T15:35:49;27.50;41.80
32187;DHT22;18686;53.084;8.872;2022-08-19T15:38:19;27.40;42.10
32187;DHT22;18686;53.084;8.872;2022-08-19T15:40:49;27.30;42.90
32187;DHT22;18686;53.084;8.872;2022-08-19T15:43:19;27.30;43.20
32187;DHT22;18686;53.084;8.872;2022-08-19T15:45:49;27.20;43.70
32187;DHT22;18686;53.084;8.872;2022-08-19T15:48:17;27.10;43.20
32187;DHT22;18686;53.084;8.872;2022-08-19T15:50:45;27.00;44.30
32187;DHT22;18686;53.084;8.872;2022-08-19T15:53:14;27.00;43.90
32187;DHT22;18686;53.084;8.872;2022-08-19T15:55:44;26.90;44.20
32187;DHT22;18686;53.084;8.872;2022-08-19T15:58:14;26.80;44.30
32187;DHT22;18686;53.084;8.872;2022-08-19T16:01:04;26.80;44.20